createdAt,value
2022-08-01T00:00:31.476Z,19.48
2022-08-01T00:01:31.461Z,19.49
2022-08-01T00:02:31.596Z,19.49
2022-08-01T00:03:31.466Z,19.50
2022-08-01T00:04:31.465Z,19.53
2022-08-01T00:05:31.469Z,19.54
2022-08-01T00:06:31.461Z,19.57
2022-08-01T00:07:31.478Z,19.61
2022-08-01T00:08:31.464Z,19.63
2022-08-01T00:09:31.474Z,19.65
2022-08-01T00:10:31.478Z,19.71
2022-08-01T00:11:31.468Z,19.77
2022-08-01T00:12:31.469Z,19.83
2022-08-01T00:13:31.472Z,19.87
2022-08-01T00:14:32.420Z,19.91
2022-08-01T00:15:31.485Z,19.93
2022-08-01T00:16:31.496Z,19.96
2022-08-01T00:17:31.482Z,20.01
2022-08-01T00:18:31.493Z,20.04
2022-08-01T00:19:31.469Z,20.06
2022-08-01T00:20:31.463Z,20.09
2022-08-01T00:21:31.460Z,20.11
2022-08-01T00:22:31.484Z,20.14
2022-08-01T00:23:31.530Z,20.16
2022-08-01T00:24:31.489Z,20.20
2022-08-01T00:25:33.813Z,20.23
2022-08-01T00:26:31.530Z,20.26
2022-08-01T00:27:31.532Z,20.28
2022-08-01T00:28:31.537Z,20.30
2022-08-01T00:30:10.462Z,20.30
2022-08-01T00:30:31.515Z,20.31
2022-08-01T00:31:31.531Z,20.29
2022-08-01T00:32:31.535Z,20.30
2022-08-01T00:33:31.533Z,20.29
2022-08-01T00:34:31.505Z,20.30
2022-08-01T00:35:31.516Z,20.30
2022-08-01T00:36:31.500Z,20.30
2022-08-01T00:37:31.503Z,20.31
2022-08-01T00:38:31.531Z,20.31
2022-08-01T00:39:31.527Z,20.31
2022-08-01T00:40:31.525Z,20.30
2022-08-01T00:41:31.532Z,20.30
2022-08-01T00:42:31.529Z,20.30
2022-08-01T00:43:31.548Z,20.30
2022-08-01T00:44:31.565Z,20.30
2022-08-01T00:45:31.555Z,20.30
2022-08-01T00:46:31.539Z,20.29
2022-08-01T00:47:31.558Z,20.30
2022-08-01T00:48:31.521Z,20.29
2022-08-01T00:49:31.586Z,20.28
2022-08-01T00:50:31.542Z,20.28
2022-08-01T00:51:31.551Z,20.28
2022-08-01T00:52:31.564Z,20.27
2022-08-01T00:53:51.473Z,20.27
2022-08-01T00:54:31.543Z,20.25
2022-08-01T00:55:31.551Z,20.26
2022-08-01T00:56:31.549Z,20.26
2022-08-01T00:57:40.784Z,20.25
2022-08-01T00:58:31.572Z,20.24
2022-08-01T00:59:31.545Z,20.23
2022-08-01T01:00:33.738Z,20.23
2022-08-01T01:01:39.871Z,20.22
2022-08-01T01:02:31.561Z,20.22
2022-08-01T01:03:57.672Z,20.22
2022-08-01T01:04:31.557Z,20.21
2022-08-01T01:05:35.749Z,20.21
2022-08-01T01:06:31.538Z,20.19
2022-08-01T01:07:31.546Z,20.19
2022-08-01T01:08:31.542Z,20.18
2022-08-01T01:09:31.546Z,20.16
2022-08-01T01:10:31.569Z,20.15
2022-08-01T01:11:31.588Z,20.14
2022-08-01T01:12:37.334Z,20.12
2022-08-01T01:13:31.574Z,20.11
2022-08-01T01:14:31.554Z,20.10
2022-08-01T01:15:31.564Z,20.07
2022-08-01T01:16:31.547Z,20.06
2022-08-01T01:17:50.287Z,20.02
2022-08-01T01:18:31.598Z,20.00
2022-08-01T01:19:31.564Z,19.98
2022-08-01T01:20:31.573Z,19.96
2022-08-01T01:21:31.592Z,19.94
2022-08-01T01:22:31.585Z,19.92
2022-08-01T01:23:31.613Z,19.90
2022-08-01T01:24:31.570Z,19.89
2022-08-01T01:25:31.585Z,19.88
2022-08-01T01:26:31.597Z,19.87
2022-08-01T01:27:31.612Z,19.84
2022-08-01T01:28:31.581Z,19.83
2022-08-01T01:29:31.573Z,19.80
2022-08-01T01:30:31.582Z,19.77
2022-08-01T01:31:31.577Z,19.74
2022-08-01T01:32:31.605Z,19.70
2022-08-01T01:33:47.439Z,19.68
2022-08-01T01:34:31.600Z,19.66
2022-08-01T01:35:31.598Z,19.64
2022-08-01T01:36:31.621Z,19.62
2022-08-01T01:37:31.601Z,19.62
2022-08-01T01:38:31.600Z,19.60
2022-08-01T01:39:31.587Z,19.59
2022-08-01T01:40:31.610Z,19.57
2022-08-01T01:41:31.597Z,19.55
2022-08-01T01:42:31.606Z,19.54
2022-08-01T01:43:33.692Z,19.54
2022-08-01T01:44:31.607Z,19.51
2022-08-01T01:45:31.594Z,19.50
2022-08-01T01:46:31.614Z,19.50
2022-08-01T01:47:31.615Z,19.49
2022-08-01T01:48:31.607Z,19.48
2022-08-01T01:49:31.682Z,19.49
2022-08-01T01:50:31.594Z,19.49
2022-08-01T01:51:31.618Z,19.49
2022-08-01T01:52:31.633Z,19.50
2022-08-01T01:53:31.631Z,19.52
2022-08-01T01:54:31.626Z,19.51
2022-08-01T01:55:31.633Z,19.53
2022-08-01T01:56:31.623Z,19.52
2022-08-01T01:57:31.654Z,19.53
2022-08-01T01:58:31.603Z,19.54
2022-08-01T01:59:31.620Z,19.54
2022-08-01T02:00:31.634Z,19.54
2022-08-01T02:01:58.734Z,19.53
2022-08-01T02:02:31.733Z,19.51
2022-08-01T02:03:31.632Z,19.49
2022-08-01T02:04:31.609Z,19.48
2022-08-01T02:05:31.650Z,19.46
2022-08-01T02:06:31.657Z,19.43
2022-08-01T02:07:31.632Z,19.42
2022-08-01T02:08:31.836Z,19.39
2022-08-01T02:09:31.628Z,19.37
2022-08-01T02:10:31.667Z,19.34
2022-08-01T02:11:31.639Z,19.32
2022-08-01T02:12:31.674Z,19.29
2022-08-01T02:13:31.633Z,19.26
2022-08-01T02:14:31.659Z,19.23
2022-08-01T02:15:31.671Z,19.18
2022-08-01T02:16:31.650Z,19.14
2022-08-01T02:17:31.663Z,19.12
2022-08-01T02:18:31.614Z,19.09
2022-08-01T02:19:31.646Z,19.05
2022-08-01T02:20:31.655Z,19.04
2022-08-01T02:21:31.643Z,19.03
2022-08-01T02:22:31.668Z,19.02
2022-08-01T02:23:31.648Z,19.02
2022-08-01T02:24:31.646Z,19.01
2022-08-01T02:25:31.636Z,19.00
2022-08-01T02:26:31.662Z,19.01
2022-08-01T02:27:31.674Z,19.01
2022-08-01T02:28:31.655Z,19.03
2022-08-01T02:29:31.651Z,19.04
2022-08-01T02:30:31.649Z,19.05
2022-08-01T02:31:31.661Z,19.05
2022-08-01T02:32:31.686Z,19.06
2022-08-01T02:33:31.706Z,19.09
2022-08-01T02:34:31.702Z,19.10
2022-08-01T02:35:31.740Z,19.11
2022-08-01T02:36:33.385Z,19.10
2022-08-01T02:37:31.750Z,19.12
2022-08-01T02:38:31.749Z,19.15
2022-08-01T02:39:31.762Z,19.16
2022-08-01T02:40:31.799Z,19.16
2022-08-01T02:41:31.786Z,19.19
2022-08-01T02:42:31.816Z,19.22
2022-08-01T02:43:31.817Z,19.23
2022-08-01T02:44:31.971Z,19.24
2022-08-01T02:45:31.840Z,19.26
2022-08-01T02:46:31.835Z,19.28
2022-08-01T02:47:31.876Z,19.28
2022-08-01T02:48:31.875Z,19.29
2022-08-01T02:49:31.952Z,19.32
2022-08-01T02:50:31.909Z,19.33
2022-08-01T02:51:31.913Z,19.34
2022-08-01T02:52:31.932Z,19.35
2022-08-01T02:53:44.004Z,19.36
2022-08-01T02:54:31.917Z,19.37
2022-08-01T02:55:31.948Z,19.37
2022-08-01T02:56:31.953Z,19.38
2022-08-01T02:57:51.285Z,19.39
2022-08-01T02:58:31.938Z,19.40
2022-08-01T02:59:31.994Z,19.40
2022-08-01T03:00:31.982Z,19.40
2022-08-01T03:01:32.000Z,19.40
2022-08-01T03:02:31.973Z,19.40
2022-08-01T03:03:31.957Z,19.42
2022-08-01T03:04:31.967Z,19.42
2022-08-01T03:05:31.964Z,19.44
2022-08-01T03:06:31.942Z,19.45
2022-08-01T03:07:34.575Z,19.46
2022-08-01T03:08:31.975Z,19.46
2022-08-01T03:09:31.968Z,19.46
2022-08-01T03:10:31.959Z,19.48
2022-08-01T03:11:31.951Z,19.49
2022-08-01T03:12:31.996Z,19.52
2022-08-01T03:13:31.962Z,19.53
2022-08-01T03:14:31.983Z,19.55
2022-08-01T03:15:31.958Z,19.58
2022-08-01T03:16:31.964Z,19.60
2022-08-01T03:17:31.988Z,19.63
2022-08-01T03:18:31.976Z,19.63
2022-08-01T03:19:31.989Z,19.64
2022-08-01T03:20:31.945Z,19.68
2022-08-01T03:21:32.008Z,19.69
2022-08-01T03:22:31.977Z,19.69
2022-08-01T03:23:38.350Z,19.70
2022-08-01T03:24:31.985Z,19.69
2022-08-01T03:25:31.971Z,19.69
2022-08-01T03:26:31.982Z,19.70
2022-08-01T03:27:31.998Z,19.70
2022-08-01T03:28:31.986Z,19.70
2022-08-01T03:29:31.985Z,19.71
2022-08-01T03:30:32.014Z,19.71
2022-08-01T03:31:31.998Z,19.70
2022-08-01T03:32:32.014Z,19.71
2022-08-01T03:33:31.999Z,19.72
2022-08-01T03:34:32.001Z,19.72
2022-08-01T03:35:32.009Z,19.71
2022-08-01T03:36:32.002Z,19.72
2022-08-01T03:37:32.024Z,19.71
2022-08-01T03:38:31.969Z,19.71
2022-08-01T03:39:32.011Z,19.72
2022-08-01T03:40:32.019Z,19.73
2022-08-01T03:41:31.977Z,19.72
2022-08-01T03:42:32.028Z,19.71
2022-08-01T03:43:32.022Z,19.71
2022-08-01T03:44:32.006Z,19.70
2022-08-01T03:45:32.010Z,19.70
2022-08-01T03:46:31.996Z,19.70
2022-08-01T03:47:32.033Z,19.70
2022-08-01T03:48:32.026Z,19.70
2022-08-01T03:49:32.051Z,19.70
2022-08-01T03:50:32.001Z,19.69
2022-08-01T03:51:32.005Z,19.68
2022-08-01T03:52:32.034Z,19.70
2022-08-01T03:53:32.009Z,19.68
2022-08-01T03:54:32.004Z,19.67
2022-08-01T03:55:32.012Z,19.65
2022-08-01T03:56:32.022Z,19.66
2022-08-01T03:57:36.951Z,19.66
2022-08-01T03:58:32.023Z,19.63
2022-08-01T03:59:32.024Z,19.61
2022-08-01T04:00:32.016Z,19.61
2022-08-01T04:01:32.102Z,19.61
2022-08-01T04:02:32.035Z,19.62
2022-08-01T04:03:32.029Z,19.62
2022-08-01T04:04:32.039Z,19.63
2022-08-01T04:05:32.059Z,19.63
2022-08-01T04:06:32.037Z,19.64
2022-08-01T04:07:32.033Z,19.64
2022-08-01T04:08:32.030Z,19.65
2022-08-01T04:09:32.037Z,19.68
2022-08-01T04:10:32.039Z,19.68
2022-08-01T04:11:32.071Z,19.69
2022-08-01T04:12:32.061Z,19.70
2022-08-01T04:13:36.758Z,19.70
2022-08-01T04:14:32.045Z,19.70
2022-08-01T04:15:32.061Z,19.70
2022-08-01T04:16:32.045Z,19.69
2022-08-01T04:17:32.060Z,19.69
2022-08-01T04:18:32.032Z,19.68
2022-08-01T04:19:32.069Z,19.70
2022-08-01T04:20:32.042Z,19.70
2022-08-01T04:21:32.059Z,19.71
2022-08-01T04:22:32.062Z,19.70
2022-08-01T04:23:32.046Z,19.71
2022-08-01T04:24:32.068Z,19.71
2022-08-01T04:25:32.073Z,19.72
2022-08-01T04:26:32.067Z,19.73
2022-08-01T04:27:48.712Z,19.74
2022-08-01T04:28:32.079Z,19.74
2022-08-01T04:29:32.051Z,19.75
2022-08-01T04:30:32.074Z,19.76
2022-08-01T04:31:32.088Z,19.77
2022-08-01T04:32:32.073Z,19.77
2022-08-01T04:33:32.079Z,19.79
2022-08-01T04:34:32.068Z,19.79
2022-08-01T04:36:02.103Z,19.81
2022-08-01T04:36:32.086Z,19.80
2022-08-01T04:37:32.112Z,19.81
2022-08-01T04:38:32.103Z,19.81
2022-08-01T04:39:32.081Z,19.81
2022-08-01T04:40:32.068Z,19.81
2022-08-01T04:41:32.078Z,19.81
2022-08-01T04:42:33.619Z,19.81
2022-08-01T04:43:32.086Z,19.82
2022-08-01T04:44:32.797Z,19.81
2022-08-01T04:45:32.091Z,19.79
2022-08-01T04:46:32.111Z,19.79
2022-08-01T04:47:32.102Z,19.79
2022-08-01T04:48:32.083Z,19.79
2022-08-01T04:49:32.144Z,19.78
2022-08-01T04:50:32.125Z,19.78
2022-08-01T04:51:32.078Z,19.79
2022-08-01T04:52:32.136Z,19.79
2022-08-01T04:53:32.093Z,19.79
2022-08-01T04:54:32.081Z,19.79
2022-08-01T04:55:32.085Z,19.79
2022-08-01T04:56:32.124Z,19.79
2022-08-01T04:57:32.127Z,19.78
2022-08-01T04:58:32.125Z,19.78
2022-08-01T04:59:32.104Z,19.79
2022-08-01T05:00:32.129Z,19.79
2022-08-01T05:01:32.167Z,19.79
2022-08-01T05:02:32.116Z,19.81
2022-08-01T05:03:35.861Z,19.81
2022-08-01T05:04:32.097Z,19.81
2022-08-01T05:05:32.128Z,19.82
2022-08-01T05:06:32.105Z,19.81
2022-08-01T05:07:32.118Z,19.80
2022-08-01T05:08:32.107Z,19.80
2022-08-01T05:09:32.114Z,19.79
2022-08-01T05:10:32.132Z,19.78
2022-08-01T05:11:32.130Z,19.78
2022-08-01T05:12:32.125Z,19.77
2022-08-01T05:13:32.102Z,19.77
2022-08-01T05:14:32.128Z,19.77
2022-08-01T05:15:32.127Z,19.77
2022-08-01T05:16:32.117Z,19.77
2022-08-01T05:17:32.134Z,19.75
2022-08-01T05:18:32.104Z,19.74
2022-08-01T05:19:32.139Z,19.72
2022-08-01T05:20:32.130Z,19.73
2022-08-01T05:21:32.143Z,19.71
2022-08-01T05:22:32.131Z,19.71
2022-08-01T05:23:42.682Z,19.71
2022-08-01T05:24:32.138Z,19.73
2022-08-01T05:25:49.746Z,19.73
2022-08-01T05:26:32.120Z,19.75
2022-08-01T05:27:32.267Z,19.78
2022-08-01T05:28:32.146Z,19.82
2022-08-01T05:29:32.147Z,19.82
2022-08-01T05:30:32.133Z,19.83
2022-08-01T05:31:32.151Z,19.85
2022-08-01T05:32:32.150Z,19.86
2022-08-01T05:33:32.160Z,19.88
2022-08-01T05:34:32.141Z,19.92
2022-08-01T05:35:48.135Z,19.93
2022-08-01T05:36:32.148Z,19.94
2022-08-01T05:37:32.174Z,19.94
2022-08-01T05:38:32.149Z,19.96
2022-08-01T05:39:32.129Z,19.98
2022-08-01T05:40:32.159Z,20.00
2022-08-01T05:41:32.156Z,19.99
2022-08-01T05:42:32.158Z,20.02
2022-08-01T05:43:32.162Z,20.05
2022-08-01T05:44:32.150Z,20.07
2022-08-01T05:45:32.170Z,20.09
2022-08-01T05:46:32.160Z,20.13
2022-08-01T05:47:32.167Z,20.16
2022-08-01T05:48:32.167Z,20.16
2022-08-01T05:49:32.266Z,20.15
2022-08-01T05:50:32.165Z,20.14
2022-08-01T05:51:32.169Z,20.14
2022-08-01T05:52:32.170Z,20.13
2022-08-01T05:53:32.155Z,20.13
2022-08-01T05:54:32.182Z,20.12
2022-08-01T05:55:32.207Z,20.12
2022-08-01T05:56:32.442Z,20.13
2022-08-01T05:57:32.181Z,20.13
2022-08-01T05:58:32.184Z,20.12
2022-08-01T05:59:32.181Z,20.10
2022-08-01T06:00:32.174Z,20.09
2022-08-01T06:01:32.187Z,20.07
2022-08-01T06:02:32.346Z,20.05
2022-08-01T06:03:32.191Z,20.04
2022-08-01T06:04:32.190Z,20.04
2022-08-01T06:05:32.197Z,20.06
2022-08-01T06:06:32.182Z,20.06
2022-08-01T06:07:32.219Z,20.08
2022-08-01T06:08:32.204Z,20.10
2022-08-01T06:09:32.192Z,20.12
2022-08-01T06:10:32.197Z,20.12
2022-08-01T06:11:32.209Z,20.14
2022-08-01T06:12:35.480Z,20.13
2022-08-01T06:13:32.174Z,20.13
2022-08-01T06:14:32.199Z,20.12
2022-08-01T06:15:32.197Z,20.13
2022-08-01T06:16:32.197Z,20.14
2022-08-01T06:17:32.223Z,20.15
2022-08-01T06:18:32.187Z,20.17
2022-08-01T06:19:32.198Z,20.18
2022-08-01T06:20:32.214Z,20.20
2022-08-01T06:21:32.200Z,20.19
2022-08-01T06:22:32.224Z,20.22
2022-08-01T06:23:33.014Z,20.22
2022-08-01T06:24:32.242Z,20.22
2022-08-01T06:25:32.199Z,20.22
2022-08-01T06:26:32.203Z,20.19
2022-08-01T06:27:32.221Z,20.20
2022-08-01T06:28:32.232Z,20.22
2022-08-01T06:29:32.211Z,20.23
2022-08-01T06:30:32.207Z,20.26
2022-08-01T06:31:33.995Z,20.26
2022-08-01T06:32:32.263Z,20.28
2022-08-01T06:33:32.209Z,20.29
2022-08-01T06:34:32.232Z,20.31
2022-08-01T06:35:32.219Z,20.35
2022-08-01T06:36:32.203Z,20.35
2022-08-01T06:37:32.246Z,20.37
2022-08-01T06:38:32.218Z,20.36
2022-08-01T06:39:32.244Z,20.37
2022-08-01T06:40:32.228Z,20.40
2022-08-01T06:41:32.240Z,20.42
2022-08-01T06:42:32.255Z,20.45
2022-08-01T06:43:32.223Z,20.49
2022-08-01T06:44:32.244Z,20.54
2022-08-01T06:45:32.253Z,20.59
2022-08-01T06:46:32.234Z,20.64
2022-08-01T06:47:32.245Z,20.64
2022-08-01T06:48:32.226Z,20.66
2022-08-01T06:49:32.253Z,20.68
2022-08-01T06:50:32.263Z,20.68
2022-08-01T06:51:32.247Z,20.66
2022-08-01T06:52:32.236Z,20.64
2022-08-01T06:53:36.332Z,20.65
2022-08-01T06:54:32.257Z,20.66
2022-08-01T06:55:32.264Z,20.67
2022-08-01T06:56:32.266Z,20.67
2022-08-01T06:57:32.265Z,20.67
2022-08-01T06:58:32.260Z,20.68
2022-08-01T06:59:32.266Z,20.66
2022-08-01T07:00:32.301Z,20.67
2022-08-01T07:01:35.189Z,20.67
2022-08-01T07:02:32.281Z,20.67
2022-08-01T07:03:53.796Z,20.70
2022-08-01T07:04:32.268Z,20.72
2022-08-01T07:05:32.248Z,20.76
2022-08-01T07:06:32.262Z,20.79
2022-08-01T07:07:32.291Z,20.84
2022-08-01T07:08:32.236Z,20.86
2022-08-01T07:09:32.294Z,20.87
2022-08-01T07:10:32.285Z,20.87
2022-08-01T07:11:32.302Z,20.88
2022-08-01T07:12:32.287Z,20.87
2022-08-01T07:13:36.892Z,20.89
2022-08-01T07:14:32.270Z,20.92
2022-08-01T07:15:32.297Z,20.94
2022-08-01T07:16:32.295Z,20.97
2022-08-01T07:17:32.315Z,21.00
2022-08-01T07:18:32.269Z,21.02
2022-08-01T07:19:32.313Z,21.04
2022-08-01T07:20:36.289Z,21.07
2022-08-01T07:21:40.741Z,21.09
2022-08-01T07:22:32.303Z,21.13
2022-08-01T07:23:33.897Z,21.17
2022-08-01T07:24:32.281Z,21.22
2022-08-01T07:25:32.300Z,21.28
2022-08-01T07:26:32.280Z,21.37
2022-08-01T07:27:32.311Z,21.47
2022-08-01T07:28:32.299Z,21.58
2022-08-01T07:29:32.286Z,21.69
2022-08-01T07:30:32.294Z,21.82
2022-08-01T07:31:32.562Z,21.90
2022-08-01T07:32:32.310Z,21.92
2022-08-01T07:33:48.858Z,21.98
2022-08-01T07:34:32.303Z,22.00
2022-08-01T07:35:32.305Z,22.00
2022-08-01T07:36:32.289Z,22.03
2022-08-01T07:37:42.092Z,22.13
2022-08-01T07:38:32.498Z,22.20
2022-08-01T07:39:32.286Z,22.34
2022-08-01T07:40:32.291Z,22.56
2022-08-01T07:41:45.649Z,22.85
2022-08-01T07:42:32.331Z,23.10
2022-08-01T07:43:32.315Z,23.26
2022-08-01T07:44:32.313Z,23.25
2022-08-01T07:45:32.315Z,23.21
2022-08-01T07:46:32.316Z,23.24
2022-08-01T07:47:32.319Z,23.29
2022-08-01T07:48:32.312Z,23.37
2022-08-01T07:49:36.256Z,23.54
2022-08-01T07:50:34.186Z,23.66
2022-08-01T07:51:32.311Z,23.66
2022-08-01T07:52:32.334Z,23.53
2022-08-01T07:53:32.346Z,23.30
2022-08-01T07:54:33.494Z,23.03
2022-08-01T07:55:32.351Z,22.86
2022-08-01T07:56:32.322Z,22.77
2022-08-01T07:57:32.326Z,22.70
2022-08-01T07:58:32.330Z,22.64
2022-08-01T07:59:32.358Z,22.59
2022-08-01T08:00:32.329Z,22.49
2022-08-01T08:01:32.365Z,22.47
2022-08-01T08:02:32.347Z,22.46
2022-08-01T08:03:32.317Z,22.43
2022-08-01T08:04:32.363Z,22.45
2022-08-01T08:05:58.769Z,22.45
2022-08-01T08:06:32.335Z,22.46
2022-08-01T08:07:32.343Z,22.41
2022-08-01T08:08:32.330Z,22.50
2022-08-01T08:09:37.938Z,22.74
2022-08-01T08:10:32.364Z,23.04
2022-08-01T08:11:32.347Z,23.40
2022-08-01T08:12:32.323Z,23.83
2022-08-01T08:13:32.320Z,24.19
2022-08-01T08:14:33.183Z,24.62
2022-08-01T08:15:32.365Z,25.02
2022-08-01T08:16:32.352Z,25.18
2022-08-01T08:17:35.681Z,25.33
2022-08-01T08:18:32.363Z,25.48
2022-08-01T08:19:37.598Z,25.70
2022-08-01T08:20:32.370Z,25.80
2022-08-01T08:21:32.400Z,25.90
2022-08-01T08:22:32.369Z,25.98
2022-08-01T08:23:42.749Z,25.96
2022-08-01T08:24:32.356Z,25.73
2022-08-01T08:25:32.374Z,25.46
2022-08-01T08:26:32.380Z,25.23
2022-08-01T08:27:32.370Z,25.24
2022-08-01T08:28:32.390Z,25.33
2022-08-01T08:29:32.363Z,25.44
2022-08-01T08:30:32.372Z,25.55
2022-08-01T08:31:51.339Z,25.61
2022-08-01T08:32:32.394Z,25.64
2022-08-01T08:33:32.379Z,25.61
2022-08-01T08:34:32.378Z,25.56
2022-08-01T08:35:40.368Z,25.63
2022-08-01T08:36:32.395Z,25.74
2022-08-01T08:37:32.409Z,25.67
2022-08-01T08:38:32.391Z,25.47
2022-08-01T08:39:32.396Z,25.27
2022-08-01T08:40:32.381Z,25.33
2022-08-01T08:41:37.952Z,25.41
2022-08-01T08:42:32.398Z,25.54
2022-08-01T08:43:32.403Z,25.50
2022-08-01T08:44:32.398Z,25.44
2022-08-01T08:45:59.817Z,25.22
2022-08-01T08:46:32.360Z,25.14
2022-08-01T08:47:32.399Z,25.02
2022-08-01T08:48:32.412Z,24.92
2022-08-01T08:49:35.582Z,24.83
2022-08-01T08:50:32.407Z,24.76
2022-08-01T08:51:32.412Z,24.75
2022-08-01T08:52:32.421Z,24.69
2022-08-01T08:53:34.865Z,24.67
2022-08-01T08:54:32.467Z,24.69
2022-08-01T08:55:32.464Z,24.56
2022-08-01T08:56:32.496Z,24.51
2022-08-01T08:57:32.509Z,24.48
2022-08-01T08:58:32.499Z,24.47
2022-08-01T08:59:32.521Z,24.48
2022-08-01T09:00:32.547Z,24.49
2022-08-01T09:01:32.589Z,24.53
2022-08-01T09:02:32.580Z,24.60
2022-08-01T09:03:32.659Z,24.69
2022-08-01T09:04:32.581Z,24.82
2022-08-01T09:05:38.693Z,25.01
2022-08-01T09:06:32.616Z,25.13
2022-08-01T09:07:32.625Z,25.38
2022-08-01T09:08:32.625Z,25.67
2022-08-01T09:09:32.591Z,25.99
2022-08-01T09:10:32.586Z,26.30
2022-08-01T09:11:32.611Z,26.62
2022-08-01T09:12:32.612Z,26.95
2022-08-01T09:13:32.613Z,27.34
2022-08-01T09:14:32.601Z,27.74
2022-08-01T09:15:34.003Z,28.06
2022-08-01T09:16:32.623Z,28.26
2022-08-01T09:17:32.638Z,28.39
2022-08-01T09:18:32.636Z,28.32
2022-08-01T09:19:39.487Z,28.01
2022-08-01T09:20:32.650Z,27.74
2022-08-01T09:21:32.639Z,27.52
2022-08-01T09:22:32.637Z,27.30
2022-08-01T09:23:32.607Z,27.14
2022-08-01T09:24:32.624Z,27.14
2022-08-01T09:25:45.933Z,27.20
2022-08-01T09:26:32.629Z,27.41
2022-08-01T09:27:32.644Z,27.72
2022-08-01T09:28:32.621Z,28.04
2022-08-01T09:29:37.171Z,28.07
2022-08-01T09:30:32.653Z,27.99
2022-08-01T09:31:38.578Z,27.75
2022-08-01T09:32:35.085Z,27.48
2022-08-01T09:33:36.885Z,27.27
2022-08-01T09:34:32.646Z,27.12
2022-08-01T09:35:36.401Z,26.77
2022-08-01T09:36:32.661Z,26.57
2022-08-01T09:37:37.219Z,26.38
2022-08-01T09:38:32.668Z,26.22
2022-08-01T09:39:32.671Z,26.03
2022-08-01T09:40:32.651Z,25.88
2022-08-01T09:41:40.015Z,25.78
2022-08-01T09:42:32.678Z,25.71
2022-08-01T09:43:32.884Z,25.71
2022-08-01T09:44:42.043Z,25.66
2022-08-01T09:45:41.648Z,25.65
2022-08-01T09:46:32.680Z,25.69
2022-08-01T09:47:32.656Z,25.73
2022-08-01T09:48:32.687Z,25.67
2022-08-01T09:49:49.706Z,25.63
2022-08-01T09:50:32.672Z,25.60
2022-08-01T09:51:59.348Z,25.59
2022-08-01T09:52:32.713Z,25.64
2022-08-01T09:53:32.653Z,25.71
2022-08-01T09:54:32.653Z,25.84
2022-08-01T09:55:32.662Z,26.07
2022-08-01T09:56:32.681Z,26.39
2022-08-01T09:57:32.687Z,26.75
2022-08-01T09:58:32.710Z,27.11
2022-08-01T09:59:56.651Z,27.52
2022-08-01T10:00:44.920Z,27.80
2022-08-01T10:01:36.798Z,27.86
2022-08-01T10:02:32.725Z,27.73
2022-08-01T10:03:32.752Z,27.87
2022-08-01T10:04:32.679Z,28.14
2022-08-01T10:05:32.669Z,28.44
2022-08-01T10:06:32.710Z,28.63
2022-08-01T10:07:43.627Z,28.77
2022-08-01T10:08:32.693Z,29.01
2022-08-01T10:09:40.464Z,29.34
2022-08-01T10:10:32.714Z,29.68
2022-08-01T10:11:36.062Z,30.12
2022-08-01T10:12:32.725Z,30.30
2022-08-01T10:13:36.508Z,30.03
2022-08-01T10:14:32.683Z,29.81
2022-08-01T10:15:36.846Z,29.69
2022-08-01T10:16:32.742Z,29.73
2022-08-01T10:17:49.962Z,29.64
2022-08-01T10:18:32.722Z,29.43
2022-08-01T10:19:32.815Z,29.42
2022-08-01T10:20:32.714Z,29.03
2022-08-01T10:21:56.236Z,28.93
2022-08-01T10:22:35.673Z,28.83
2022-08-01T10:23:39.835Z,28.58
2022-08-01T10:24:33.624Z,28.41
2022-08-01T10:25:42.113Z,28.35
2022-08-01T10:26:32.739Z,28.25
2022-08-01T10:27:38.217Z,28.10
2022-08-01T10:28:32.747Z,28.02
2022-08-01T10:29:58.920Z,27.96
2022-08-01T10:30:32.730Z,27.93
2022-08-01T10:31:32.725Z,27.94
2022-08-01T10:32:32.756Z,27.96
2022-08-01T10:33:51.725Z,27.87
2022-08-01T10:34:32.741Z,27.80
2022-08-01T10:35:47.241Z,27.80
2022-08-01T10:36:32.733Z,27.82
2022-08-01T10:37:32.743Z,27.89
2022-08-01T10:38:32.718Z,27.99
2022-08-01T10:39:32.818Z,28.19
2022-08-01T10:40:32.801Z,28.58
2022-08-01T10:41:32.752Z,29.10
2022-08-01T10:42:32.745Z,29.69
2022-08-01T10:43:32.812Z,29.83
2022-08-01T10:44:32.849Z,30.03
2022-08-01T10:45:32.818Z,30.18
2022-08-01T10:46:32.861Z,30.35
2022-08-01T10:47:50.876Z,30.59
2022-08-01T10:48:32.883Z,30.84
2022-08-01T10:49:32.892Z,31.12
2022-08-01T10:50:32.867Z,31.03
2022-08-01T10:51:51.939Z,30.79
2022-08-01T10:52:35.424Z,30.48
2022-08-01T10:53:42.358Z,30.15
2022-08-01T10:54:32.858Z,29.80
2022-08-01T10:55:32.884Z,29.44
2022-08-01T10:56:32.893Z,28.99
2022-08-01T10:57:32.850Z,28.58
2022-08-01T10:58:39.455Z,28.29
2022-08-01T10:59:49.787Z,28.07
2022-08-01T11:00:32.885Z,27.86
2022-08-01T11:01:32.968Z,27.68
2022-08-01T11:02:33.036Z,27.56
2022-08-01T11:03:55.738Z,27.41
2022-08-01T11:04:32.864Z,27.28
2022-08-01T11:05:33.046Z,27.17
2022-08-01T11:06:32.863Z,27.11
2022-08-01T11:07:34.184Z,27.04
2022-08-01T11:08:32.882Z,26.98
2022-08-01T11:09:37.350Z,26.83
2022-08-01T11:10:32.898Z,26.72
2022-08-01T11:11:37.452Z,26.64
2022-08-01T11:12:32.894Z,26.65
2022-08-01T11:13:32.901Z,26.75
2022-08-01T11:14:53.967Z,27.05
2022-08-01T11:15:32.907Z,27.51
2022-08-01T11:16:32.917Z,28.19
2022-08-01T11:17:37.733Z,28.75
2022-08-01T11:18:32.912Z,29.13
2022-08-01T11:19:32.897Z,29.38
2022-08-01T11:20:32.946Z,29.42
2022-08-01T11:21:57.911Z,29.34
2022-08-01T11:22:33.112Z,29.24
2022-08-01T11:23:36.204Z,29.12
2022-08-01T11:24:32.926Z,29.09
2022-08-01T11:26:06.724Z,29.18
2022-08-01T11:26:32.930Z,29.40
2022-08-01T11:27:33.706Z,29.68
2022-08-01T11:28:35.590Z,29.96
2022-08-01T11:29:32.910Z,30.25
2022-08-01T11:30:32.921Z,30.70
2022-08-01T11:31:37.147Z,30.95
2022-08-01T11:32:42.440Z,31.06
2022-08-01T11:33:32.902Z,30.93
2022-08-01T11:34:32.931Z,30.61
2022-08-01T11:35:32.923Z,30.32
2022-08-01T11:36:57.544Z,30.01
2022-08-01T11:37:32.933Z,29.69
2022-08-01T11:38:32.926Z,29.41
2022-08-01T11:39:38.310Z,29.28
2022-08-01T11:40:32.935Z,29.30
2022-08-01T11:41:38.183Z,29.45
2022-08-01T11:42:32.955Z,29.65
2022-08-01T11:43:32.956Z,29.77
2022-08-01T11:44:32.946Z,29.85
2022-08-01T11:45:32.948Z,30.08
2022-08-01T11:46:32.956Z,30.39
2022-08-01T11:47:32.955Z,30.47
2022-08-01T11:48:32.989Z,30.58
2022-08-01T11:49:32.999Z,30.75
2022-08-01T11:50:32.963Z,30.97
2022-08-01T11:51:32.968Z,31.17
2022-08-01T11:52:32.979Z,31.34
2022-08-01T11:53:32.965Z,31.34
2022-08-01T11:54:35.434Z,31.41
2022-08-01T11:55:32.931Z,31.56
2022-08-01T11:56:32.965Z,31.90
2022-08-01T11:57:34.402Z,32.25
2022-08-01T11:58:32.972Z,32.62
2022-08-01T11:59:37.936Z,33.01
2022-08-01T12:00:32.978Z,33.33
2022-08-01T12:01:33.000Z,33.63
2022-08-01T12:02:33.119Z,33.69
2022-08-01T12:03:33.442Z,33.54
2022-08-01T12:04:32.960Z,33.27
2022-08-01T12:05:32.983Z,32.92
2022-08-01T12:06:32.963Z,32.52
2022-08-01T12:07:33.128Z,32.28
2022-08-01T12:08:32.982Z,32.10
2022-08-01T12:09:32.946Z,31.87
2022-08-01T12:10:32.970Z,31.62
2022-08-01T12:11:37.232Z,31.39
2022-08-01T12:12:32.984Z,31.27
2022-08-01T12:13:32.997Z,31.13
2022-08-01T12:14:32.996Z,30.92
2022-08-01T12:15:32.997Z,30.75
2022-08-01T12:16:33.348Z,30.64
2022-08-01T12:17:33.083Z,30.54
2022-08-01T12:18:32.964Z,30.36
2022-08-01T12:19:33.009Z,30.31
2022-08-01T12:20:32.997Z,30.28
2022-08-01T12:21:33.015Z,30.14
2022-08-01T12:22:32.988Z,30.01
2022-08-01T12:23:32.978Z,29.92
2022-08-01T12:24:33.000Z,29.91
2022-08-01T12:25:33.013Z,29.81
2022-08-01T12:26:33.003Z,29.58
2022-08-01T12:27:33.034Z,29.56
2022-08-01T12:28:33.017Z,29.58
2022-08-01T12:29:33.083Z,29.43
2022-08-01T12:30:32.983Z,29.38
2022-08-01T12:31:33.045Z,29.39
2022-08-01T12:32:35.741Z,29.40
2022-08-01T12:33:35.189Z,29.42
2022-08-01T12:34:33.046Z,29.41
2022-08-01T12:35:32.990Z,29.37
2022-08-01T12:36:33.045Z,29.20
2022-08-01T12:37:33.042Z,28.95
2022-08-01T12:38:33.034Z,28.72
2022-08-01T12:39:33.044Z,28.49
2022-08-01T12:40:33.036Z,28.36
2022-08-01T12:41:33.020Z,28.27
2022-08-01T12:42:33.061Z,28.18
2022-08-01T12:43:33.029Z,28.12
2022-08-01T12:44:33.023Z,28.11
2022-08-01T12:45:33.033Z,28.09
2022-08-01T12:46:33.006Z,28.06
2022-08-01T12:47:33.060Z,28.03
2022-08-01T12:48:33.062Z,28.03
2022-08-01T12:49:33.089Z,28.01
2022-08-01T12:50:33.052Z,28.05
2022-08-01T12:51:33.053Z,28.12
2022-08-01T12:52:33.032Z,28.16